createdAt,value
2017-08-28T00:01:01.189Z,23.65
2017-08-28T00:03:30.461Z,21.80
2017-08-28T00:05:59.717Z,20.70
2017-08-28T00:08:28.977Z,18.62
2017-08-28T00:10:58.232Z,23.00
2017-08-28T00:13:27.497Z,21.45
2017-08-28T00:15:56.771Z,24.10
2017-08-28T00:18:26.024Z,24.05
2017-08-28T00:20:55.281Z,23.80
2017-08-28T00:23:24.541Z,23.65
2017-08-28T00:25:53.829Z,22.98
2017-08-28T00:28:23.083Z,24.12
2017-08-28T00:30:52.504Z,23.00
2017-08-28T00:33:21.793Z,21.35
2017-08-28T00:35:51.068Z,21.87
2017-08-28T00:38:20.328Z,22.20
2017-08-28T00:40:49.584Z,20.98
2017-08-28T00:43:18.836Z,18.85
2017-08-28T00:45:48.097Z,20.70
2017-08-28T00:48:17.352Z,20.20
2017-08-28T00:50:46.620Z,20.70
2017-08-28T00:53:15.889Z,20.73
2017-08-28T00:55:45.144Z,19.75
2017-08-28T00:58:14.405Z,20.65
2017-08-28T01:03:47.842Z,22.25
2017-08-28T01:06:17.100Z,19.90
2017-08-28T01:08:46.364Z,21.75
2017-08-28T01:11:15.624Z,22.70
2017-08-28T01:13:44.885Z,22.10
2017-08-28T01:16:14.165Z,19.50
2017-08-28T01:18:43.424Z,23.55
2017-08-28T01:21:12.682Z,23.38
2017-08-28T01:23:41.960Z,21.92
2017-08-28T01:26:11.214Z,24.70
2017-08-28T01:28:40.467Z,24.08
2017-08-28T01:31:09.725Z,22.65
2017-08-28T01:33:38.982Z,25.23
2017-08-28T01:36:08.236Z,25.75
2017-08-28T01:38:37.492Z,26.08
2017-08-28T01:41:06.756Z,25.00
2017-08-28T01:43:36.008Z,24.48
2017-08-28T01:46:05.265Z,23.20
2017-08-28T01:48:34.511Z,23.20
2017-08-28T01:51:03.793Z,22.33
2017-08-28T01:53:33.144Z,24.67
2017-08-28T01:56:02.402Z,23.23
2017-08-28T01:58:31.652Z,23.92
2017-08-28T02:01:00.912Z,23.38
2017-08-28T02:03:30.173Z,24.25
2017-08-28T02:05:59.469Z,21.95
2017-08-28T02:08:28.719Z,22.20
2017-08-28T02:10:57.980Z,23.20
2017-08-28T02:13:27.276Z,23.90
2017-08-28T02:15:56.532Z,23.92
2017-08-28T02:18:25.788Z,24.60
2017-08-28T02:20:55.045Z,22.35
2017-08-28T02:23:24.296Z,22.67
2017-08-28T02:25:53.577Z,23.33
2017-08-28T02:28:22.836Z,23.55
2017-08-28T02:30:52.084Z,23.90
2017-08-28T02:33:21.336Z,24.85
2017-08-28T02:35:50.593Z,24.08
2017-08-28T02:38:19.855Z,23.33
2017-08-28T02:40:49.112Z,24.27
2017-08-28T02:43:18.378Z,24.80
2017-08-28T02:45:47.625Z,22.98
2017-08-28T02:48:16.880Z,21.83
2017-08-28T02:50:46.138Z,21.80
2017-08-28T02:53:15.395Z,24.40
2017-08-28T02:55:44.688Z,23.48
2017-08-28T02:58:13.953Z,23.15
2017-08-28T03:00:43.208Z,23.10
2017-08-28T03:03:12.467Z,21.37
2017-08-28T03:05:41.721Z,21.95
2017-08-28T03:08:10.977Z,23.20
2017-08-28T03:10:40.236Z,21.62
2017-08-28T03:13:09.495Z,22.67
2017-08-28T03:15:38.749Z,22.77
2017-08-28T03:18:07.999Z,21.52
2017-08-28T03:20:37.260Z,23.83
2017-08-28T03:23:06.525Z,21.55
2017-08-28T03:25:35.772Z,21.23
2017-08-28T03:28:05.025Z,20.88
2017-08-28T03:30:34.273Z,21.73
2017-08-28T03:33:03.521Z,20.45
2017-08-28T03:35:32.776Z,20.42
2017-08-28T03:38:02.040Z,18.20
2017-08-28T03:40:31.294Z,19.52
2017-08-28T03:43:00.568Z,20.40
2017-08-28T03:45:29.832Z,20.30
2017-08-28T03:47:59.096Z,20.88
2017-08-28T03:50:28.354Z,20.65
2017-08-28T03:52:57.599Z,20.52
2017-08-28T03:55:26.850Z,18.92
2017-08-28T03:57:56.104Z,20.12
2017-08-28T04:00:25.364Z,20.45
2017-08-28T04:02:54.616Z,19.48
2017-08-28T04:05:23.874Z,19.40
2017-08-28T04:07:53.128Z,18.98
2017-08-28T04:10:22.385Z,20.33
2017-08-28T04:12:51.632Z,18.45
2017-08-28T04:15:20.893Z,18.50
2017-08-28T04:17:50.153Z,19.15
2017-08-28T04:20:19.412Z,19.05
2017-08-28T04:22:48.660Z,19.40
2017-08-28T04:25:17.933Z,17.80
2017-08-28T04:27:47.192Z,19.75
2017-08-28T04:30:16.453Z,19.10
2017-08-28T04:32:45.709Z,18.80
2017-08-28T04:35:14.965Z,20.48
2017-08-28T04:37:44.221Z,19.55
2017-08-28T04:40:13.488Z,19.80
2017-08-28T04:42:42.761Z,19.65
2017-08-28T04:45:12.016Z,18.27
2017-08-28T04:47:41.269Z,19.02
2017-08-28T04:50:10.530Z,17.98
2017-08-28T04:52:39.793Z,18.83
2017-08-28T04:55:09.063Z,18.70
2017-08-28T04:57:38.317Z,19.55
2017-08-28T05:00:07.564Z,19.55
2017-08-28T05:02:36.820Z,17.85
2017-08-28T05:05:06.071Z,20.10
2017-08-28T05:07:35.326Z,20.00
2017-08-28T05:10:04.580Z,20.08
2017-08-28T05:12:33.844Z,21.02
2017-08-28T05:15:03.109Z,21.08
2017-08-28T05:17:32.400Z,20.27
2017-08-28T05:20:01.656Z,21.08
2017-08-28T05:22:30.915Z,22.60
2017-08-28T05:25:00.172Z,20.23
2017-08-28T05:27:29.429Z,21.37
2017-08-28T05:29:58.688Z,20.23
2017-08-28T05:32:27.965Z,19.90
2017-08-28T05:34:57.217Z,19.83
2017-08-28T05:37:26.485Z,20.62
2017-08-28T05:39:55.742Z,17.85
2017-08-28T05:42:24.995Z,18.85
2017-08-28T05:44:54.248Z,19.60
2017-08-28T05:47:23.514Z,18.60
2017-08-28T05:49:52.761Z,19.35
2017-08-28T05:52:22.025Z,18.08
2017-08-28T05:54:51.276Z,18.10
2017-08-28T05:57:20.531Z,21.70
2017-08-28T05:59:49.785Z,17.65
2017-08-28T06:02:19.064Z,18.77
2017-08-28T06:04:48.322Z,19.60
2017-08-28T06:07:17.575Z,19.37
2017-08-28T06:09:46.845Z,19.40
2017-08-28T06:12:16.103Z,19.30
2017-08-28T06:14:45.364Z,18.87
2017-08-28T06:17:14.617Z,19.92
2017-08-28T06:19:43.872Z,20.60
2017-08-28T06:22:13.139Z,20.00
2017-08-28T06:24:42.395Z,20.35
2017-08-28T06:27:11.652Z,21.05
2017-08-28T06:29:40.911Z,20.10
2017-08-28T06:32:10.168Z,20.20
2017-08-28T06:34:39.422Z,21.37
2017-08-28T06:37:08.677Z,21.30
2017-08-28T06:39:37.941Z,21.45
2017-08-28T06:42:07.193Z,21.50
2017-08-28T06:44:36.447Z,21.33
2017-08-28T06:47:05.708Z,21.60
2017-08-28T06:49:34.981Z,23.87
2017-08-28T06:52:04.232Z,23.67
2017-08-28T06:54:33.487Z,24.23
2017-08-28T06:57:02.744Z,24.00
2017-08-28T06:59:32.017Z,23.27
2017-08-28T07:02:01.277Z,25.08
2017-08-28T07:04:30.536Z,23.70
2017-08-28T07:06:59.805Z,24.92
2017-08-28T07:09:29.060Z,24.58
2017-08-28T07:11:58.324Z,24.12
2017-08-28T07:14:27.580Z,24.87
2017-08-28T07:16:56.845Z,25.25
2017-08-28T07:19:26.092Z,23.23
2017-08-28T07:21:55.357Z,25.00
2017-08-28T07:24:24.624Z,27.52
2017-08-28T07:26:53.880Z,27.40
2017-08-28T07:29:23.132Z,25.80
2017-08-28T07:31:52.398Z,26.77
2017-08-28T07:34:21.653Z,27.92
2017-08-28T07:36:50.917Z,26.87
2017-08-28T07:39:20.165Z,28.00
2017-08-28T07:41:49.449Z,28.75
2017-08-28T07:44:18.698Z,26.75
2017-08-28T07:46:47.948Z,29.05
2017-08-28T07:49:17.242Z,27.08
2017-08-28T07:51:46.519Z,25.75
2017-08-28T07:54:15.776Z,25.88
2017-08-28T07:56:45.038Z,27.17
2017-08-28T07:59:14.299Z,26.98
2017-08-28T08:01:44.358Z,27.13
2017-08-28T08:04:13.620Z,26.42
2017-08-28T08:06:42.874Z,25.58
2017-08-28T08:09:12.132Z,28.73
2017-08-28T08:11:41.384Z,27.20
2017-08-28T08:14:10.645Z,25.45
2017-08-28T08:16:39.900Z,24.95
2017-08-28T08:19:09.169Z,29.87
2017-08-28T08:21:38.420Z,25.00
2017-08-28T08:24:07.713Z,24.02
2017-08-28T08:26:36.972Z,26.33
2017-08-28T08:29:06.233Z,25.23
2017-08-28T08:31:35.500Z,26.17
2017-08-28T08:34:10.359Z,25.77
2017-08-28T08:36:39.622Z,25.37
2017-08-28T08:39:08.877Z,25.50
2017-08-28T08:41:38.140Z,26.37
2017-08-28T08:44:07.405Z,27.60
2017-08-28T08:46:36.662Z,26.60
2017-08-28T08:49:05.915Z,23.92
2017-08-28T08:51:35.178Z,24.75
2017-08-28T08:54:04.496Z,22.25
2017-08-28T08:56:33.746Z,20.95
2017-08-28T08:59:03.000Z,24.12
2017-08-28T09:01:32.260Z,22.10
2017-08-28T09:04:01.521Z,20.27
2017-08-28T09:06:30.800Z,22.17
2017-08-28T09:09:00.081Z,19.90
2017-08-28T09:11:29.372Z,20.45
2017-08-28T09:13:58.621Z,24.05
2017-08-28T09:16:27.884Z,23.83
2017-08-28T09:18:57.148Z,21.75
2017-08-28T09:21:26.410Z,22.60
2017-08-28T09:23:55.667Z,19.83
2017-08-28T09:26:24.925Z,20.58
2017-08-28T09:28:54.193Z,21.02
2017-08-28T09:31:23.465Z,20.05
2017-08-28T09:33:52.725Z,19.15
2017-08-28T09:36:21.983Z,21.98
2017-08-28T09:38:51.259Z,20.08
2017-08-28T09:41:20.513Z,21.50
2017-08-28T09:43:49.767Z,22.67
2017-08-28T09:46:19.037Z,24.63
2017-08-28T09:48:48.324Z,24.73
2017-08-28T09:51:17.646Z,23.55
2017-08-28T09:53:46.874Z,24.02
2017-08-28T09:56:16.140Z,26.77
2017-08-28T09:58:45.425Z,24.65
2017-08-28T10:01:14.684Z,26.25
2017-08-28T10:03:43.949Z,18.73
2017-08-28T10:06:13.216Z,17.83
2017-08-28T10:08:42.483Z,19.40
2017-08-28T10:11:11.737Z,21.80
2017-08-28T10:13:40.992Z,20.75
2017-08-28T10:16:10.264Z,18.17
2017-08-28T10:18:39.519Z,19.90
2017-08-28T10:21:08.792Z,18.58
2017-08-28T10:23:38.057Z,21.33
2017-08-28T10:26:07.324Z,19.08
2017-08-28T10:28:36.592Z,18.20
2017-08-28T10:31:06.040Z,15.95
2017-08-28T10:33:35.302Z,16.02
2017-08-28T10:36:04.556Z,17.00
2017-08-28T10:38:33.837Z,18.08
2017-08-28T10:41:03.101Z,17.85
2017-08-28T10:43:32.369Z,17.60
2017-08-28T10:46:01.632Z,18.35
2017-08-28T10:48:30.900Z,15.93
2017-08-28T10:51:00.161Z,13.88
2017-08-28T10:53:29.423Z,13.75
2017-08-28T10:55:58.688Z,12.52
2017-08-28T10:58:27.960Z,13.57
2017-08-28T11:00:57.217Z,13.60
2017-08-28T11:03:26.484Z,12.88
2017-08-28T11:05:55.741Z,13.40
2017-08-28T11:08:25.027Z,12.65
2017-08-28T11:10:54.327Z,11.65
2017-08-28T11:13:23.596Z,15.02
2017-08-28T11:15:52.864Z,14.35
2017-08-28T11:18:22.129Z,13.95
2017-08-28T11:20:51.464Z,13.90
2017-08-28T11:23:20.758Z,13.82
2017-08-28T11:25:50.030Z,14.02
2017-08-28T11:28:19.313Z,11.57
2017-08-28T11:30:48.585Z,11.18
2017-08-28T11:33:17.856Z,12.00
2017-08-28T11:35:47.117Z,12.37
2017-08-28T11:38:16.427Z,11.98
2017-08-28T11:40:45.682Z,11.87
2017-08-28T11:43:14.944Z,11.25
2017-08-28T11:45:44.215Z,11.10
2017-08-28T11:48:13.492Z,11.48
2017-08-28T11:50:42.773Z,11.60
2017-08-28T11:53:12.041Z,13.57
2017-08-28T11:55:41.308Z,11.80
2017-08-28T11:58:10.582Z,11.12
2017-08-28T12:00:39.849Z,10.95
2017-08-28T12:03:09.124Z,10.93
2017-08-28T12:05:38.404Z,11.53
2017-08-28T12:08:07.688Z,11.00
2017-08-28T12:10:36.948Z,11.10
2017-08-28T12:13:06.243Z,11.45
2017-08-28T12:15:35.504Z,11.85
2017-08-28T12:18:04.777Z,10.65
2017-08-28T12:20:34.051Z,10.00
2017-08-28T12:23:03.376Z,10.07
2017-08-28T12:25:32.620Z,11.12
2017-08-28T12:28:01.890Z,10.73
2017-08-28T12:30:31.157Z,9.98
2017-08-28T12:33:00.437Z,9.57
2017-08-28T12:35:29.691Z,10.03
2017-08-28T12:37:58.944Z,9.90
2017-08-28T12:40:28.214Z,10.05
2017-08-28T12:42:57.476Z,10.70
2017-08-28T12:45:26.738Z,10.20
2017-08-28T12:47:56.005Z,10.18
2017-08-28T12:50:25.260Z,9.60
2017-08-28T12:52:54.535Z,9.80
2017-08-28T12:55:23.792Z,10.30
2017-08-28T12:57:53.057Z,11.43
2017-08-28T13:00:22.321Z,10.20
2017-08-28T13:02:51.630Z,10.60
2017-08-28T13:05:20.893Z,10.50
2017-08-28T13:07:50.153Z,10.17
2017-08-28T13:10:40.622Z,9.77
2017-08-28T13:13:10.377Z,9.40
2017-08-28T13:15:39.885Z,10.48
2017-08-28T13:18:09.780Z,9.97
2017-08-28T13:20:39.044Z,9.77
2017-08-28T13:23:08.323Z,10.32
2017-08-28T13:25:37.588Z,10.48
2017-08-28T13:28:06.857Z,10.88
2017-08-28T13:30:36.132Z,10.33
2017-08-28T13:33:05.391Z,9.23
2017-08-28T13:35:34.656Z,10.57
2017-08-28T13:38:03.915Z,10.63
2017-08-28T13:40:33.175Z,9.47
2017-08-28T13:43:02.430Z,10.03
2017-08-28T13:45:31.708Z,8.70
2017-08-28T13:48:00.960Z,10.57
2017-08-28T13:50:30.236Z,9.77
2017-08-28T13:52:59.505Z,10.68
2017-08-28T13:55:28.792Z,9.83
2017-08-28T13:57:58.036Z,8.85
2017-08-28T14:00:27.344Z,9.43
2017-08-28T14:02:56.600Z,9.45
2017-08-28T14:05:25.884Z,9.13
2017-08-28T14:08:00.708Z,9.10
2017-08-28T14:10:29.952Z,8.97
2017-08-28T14:12:59.236Z,9.23
2017-08-28T14:15:28.493Z,8.83
2017-08-28T14:17:57.796Z,9.17
2017-08-28T14:20:27.065Z,10.50
2017-08-28T14:22:56.332Z,12.10
2017-08-28T14:25:25.596Z,10.30
2017-08-28T14:27:54.866Z,9.60
2017-08-28T14:30:24.129Z,9.30
2017-08-28T14:32:53.388Z,10.80
2017-08-28T14:35:22.656Z,10.60
2017-08-28T14:37:51.924Z,10.70
2017-08-28T14:40:21.185Z,9.30
2017-08-28T14:42:50.451Z,8.27
2017-08-28T14:45:19.705Z,9.00
2017-08-28T14:47:48.969Z,9.20
2017-08-28T14:50:18.223Z,8.50
2017-08-28T14:52:47.496Z,8.23
2017-08-28T14:55:16.768Z,9.63
2017-08-28T14:57:46.020Z,8.40
2017-08-28T15:00:15.272Z,8.93
2017-08-28T15:02:44.529Z,9.10
2017-08-28T15:05:13.784Z,9.40
2017-08-28T15:07:43.046Z,8.35
2017-08-28T15:10:12.296Z,9.23
2017-08-28T15:12:41.581Z,9.43
2017-08-28T15:15:10.840Z,8.90
2017-08-28T15:17:40.096Z,9.70
2017-08-28T15:20:09.368Z,9.73
2017-08-28T15:22:38.644Z,9.30
2017-08-28T15:25:07.913Z,9.20
2017-08-28T15:27:37.161Z,8.30
2017-08-28T15:30:06.427Z,8.90
2017-08-28T15:32:35.684Z,8.90
2017-08-28T15:35:04.956Z,8.50
2017-08-28T15:37:34.209Z,8.47
2017-08-28T15:40:03.469Z,8.70
2017-08-28T15:42:32.728Z,8.48
2017-08-28T15:45:01.984Z,8.97
2017-08-28T15:47:31.241Z,8.13
2017-08-28T15:50:00.500Z,8.90
2017-08-28T15:52:29.766Z,8.60
2017-08-28T15:54:59.012Z,8.80
2017-08-28T15:57:28.268Z,7.67
2017-08-28T15:59:57.527Z,8.73
2017-08-28T16:02:26.808Z,8.88
2017-08-28T16:04:56.069Z,8.30
2017-08-28T16:07:25.328Z,8.43
2017-08-28T16:09:55.386Z,7.50
2017-08-28T16:12:24.645Z,8.73
2017-08-28T16:14:53.913Z,7.97
2017-08-28T16:17:23.183Z,8.38
2017-08-28T16:19:52.536Z,8.50
2017-08-28T16:22:21.805Z,7.70
2017-08-28T16:24:51.062Z,8.05
2017-08-28T16:27:20.321Z,7.90
2017-08-28T16:29:49.578Z,7.37
2017-08-28T16:32:18.836Z,6.75
2017-08-28T16:34:48.112Z,7.07
2017-08-28T16:37:17.369Z,8.43
2017-08-28T16:39:46.713Z,8.80
2017-08-28T16:42:15.956Z,8.48
2017-08-28T16:44:45.225Z,8.30
2017-08-28T16:47:14.471Z,7.57
2017-08-28T16:49:43.742Z,7.53
2017-08-28T16:52:12.992Z,7.87
2017-08-28T16:54:42.261Z,7.53
2017-08-28T16:57:11.578Z,7.80
2017-08-28T16:59:40.854Z,9.18
2017-08-28T17:02:10.122Z,7.37
2017-08-28T17:04:39.365Z,7.60
2017-08-28T17:07:08.632Z,8.65
2017-08-28T17:09:45.574Z,8.13
2017-08-28T17:12:14.835Z,7.65
2017-08-28T17:14:44.089Z,8.75
2017-08-28T17:17:13.352Z,8.57
2017-08-28T17:19:42.605Z,7.40
2017-08-28T17:22:13.552Z,8.32
2017-08-28T17:24:42.812Z,8.35
2017-08-28T17:27:12.073Z,7.90
2017-08-28T17:29:41.325Z,8.73
2017-08-28T17:32:10.584Z,8.00
2017-08-28T17:34:39.856Z,8.30
2017-08-28T17:37:09.121Z,8.18
2017-08-28T17:39:38.381Z,7.55
2017-08-28T17:42:07.640Z,8.18
2017-08-28T17:44:36.900Z,8.45
2017-08-28T17:47:06.161Z,7.72
2017-08-28T17:49:35.404Z,7.20
2017-08-28T17:52:04.665Z,8.43
2017-08-28T17:54:33.934Z,8.02
2017-08-28T17:57:03.176Z,7.60
2017-08-28T17:59:32.432Z,7.75
2017-08-28T18:02:01.697Z,8.05
2017-08-28T18:04:30.955Z,8.88
2017-08-28T18:07:00.208Z,7.57
2017-08-28T18:09:29.456Z,6.78
2017-08-28T18:11:58.717Z,8.30
2017-08-28T18:14:27.962Z,7.82
2017-08-28T18:16:57.224Z,8.43
2017-08-28T18:19:26.468Z,8.32
2017-08-28T18:21:55.737Z,8.13
2017-08-28T18:24:24.988Z,7.32
2017-08-28T18:26:54.240Z,9.13
2017-08-28T18:29:23.497Z,8.82
2017-08-28T18:31:52.748Z,8.45
2017-08-28T18:34:22.004Z,8.90
2017-08-28T18:36:51.348Z,8.95
2017-08-28T18:39:20.618Z,8.48
2017-08-28T18:41:49.873Z,8.45
2017-08-28T18:44:19.136Z,9.70
2017-08-28T18:46:48.401Z,8.18
2017-08-28T18:49:17.653Z,9.20
2017-08-28T18:51:46.904Z,7.65
2017-08-28T18:54:16.165Z,8.98
2017-08-28T18:56:45.428Z,9.00
2017-08-28T18:59:14.704Z,8.85
2017-08-28T19:01:43.974Z,9.15
2017-08-28T19:04:13.272Z,8.70
2017-08-28T19:06:42.528Z,8.88
2017-08-28T19:09:11.795Z,8.88
2017-08-28T19:11:41.057Z,8.82
2017-08-28T19:14:10.301Z,7.87
2017-08-28T19:16:39.559Z,9.18
2017-08-28T19:19:08.809Z,8.77
2017-08-28T19:21:38.064Z,10.05
2017-08-28T19:24:07.320Z,9.07
2017-08-28T19:26:36.573Z,9.48
2017-08-28T19:29:05.838Z,10.05
2017-08-28T19:31:35.085Z,9.98
2017-08-28T19:34:07.257Z,10.73
2017-08-28T19:36:37.772Z,9.52
2017-08-28T19:39:07.034Z,10.05
2017-08-28T19:41:36.289Z,10.15
2017-08-28T19:44:05.566Z,10.52
2017-08-28T19:46:34.828Z,10.07
2017-08-28T19:49:04.085Z,10.50
2017-08-28T19:51:33.369Z,10.50
2017-08-28T19:54:02.618Z,9.95
2017-08-28T19:56:31.877Z,11.10
2017-08-28T19:59:01.124Z,10.98
2017-08-28T20:01:30.384Z,10.68
2017-08-28T20:03:59.664Z,11.75
2017-08-28T20:06:28.940Z,10.95
2017-08-28T20:08:58.196Z,10.43
2017-08-28T20:11:27.464Z,10.32
2017-08-28T20:13:56.744Z,10.23
2017-08-28T20:16:25.984Z,9.98
2017-08-28T20:18:55.237Z,10.20
2017-08-28T20:21:24.509Z,9.30
2017-08-28T20:23:53.769Z,10.38
2017-08-28T20:26:23.023Z,9.93
2017-08-28T20:28:52.273Z,10.30
2017-08-28T20:31:21.526Z,9.85
2017-08-28T20:33:50.780Z,9.60
2017-08-28T20:36:20.036Z,9.80
2017-08-28T20:38:49.296Z,10.30
2017-08-28T20:41:18.556Z,10.48
2017-08-28T20:43:47.808Z,12.43
2017-08-28T20:46:17.067Z,10.43
2017-08-28T20:48:46.328Z,10.30
2017-08-28T20:51:15.589Z,10.00
2017-08-28T20:53:44.840Z,9.80
2017-08-28T20:56:14.098Z,10.10
2017-08-28T20:58:43.365Z,10.30
2017-08-28T21:01:12.624Z,10.27
2017-08-28T21:03:41.880Z,10.98
2017-08-28T21:06:11.133Z,9.93
2017-08-28T21:08:40.389Z,9.45
2017-08-28T21:11:09.640Z,9.55
2017-08-28T21:13:38.894Z,9.32
2017-08-28T21:16:08.144Z,9.93
2017-08-28T21:18:37.393Z,9.85
2017-08-28T21:21:06.645Z,10.07
2017-08-28T21:23:35.896Z,9.35
2017-08-28T21:26:05.153Z,11.02
2017-08-28T21:28:34.460Z,10.05
2017-08-28T21:31:03.716Z,9.85
2017-08-28T21:33:33.680Z,11.25
2017-08-28T21:36:02.936Z,11.10
2017-08-28T21:38:32.201Z,11.07
2017-08-28T21:41:01.456Z,11.27
2017-08-28T21:43:30.732Z,11.27
2017-08-28T21:45:59.984Z,11.63
2017-08-28T21:48:28.525Z,11.23
2017-08-28T21:50:57.548Z,12.20
2017-08-28T21:53:26.805Z,11.52
2017-08-28T21:55:56.068Z,10.55
2017-08-28T21:58:25.321Z,12.55
2017-08-28T22:00:54.584Z,11.15
2017-08-28T22:03:23.840Z,11.30
2017-08-28T22:05:53.108Z,12.32
2017-08-28T22:08:22.355Z,12.40
2017-08-28T22:10:51.613Z,12.50
2017-08-28T22:13:20.872Z,11.15
2017-08-28T22:15:50.155Z,11.18
2017-08-28T22:18:19.404Z,11.30
2017-08-28T22:20:48.668Z,11.95
2017-08-28T22:23:17.933Z,11.65
2017-08-28T22:25:47.204Z,10.90
2017-08-28T22:28:16.449Z,11.70
2017-08-28T22:30:45.707Z,11.98
2017-08-28T22:33:14.961Z,11.68
2017-08-28T22:35:44.220Z,11.23
2017-08-28T22:38:13.472Z,11.85
2017-08-28T22:40:42.752Z,11.55
2017-08-28T22:43:12.013Z,10.75
2017-08-28T22:45:41.272Z,11.70
2017-08-28T22:48:10.545Z,12.35
2017-08-28T22:50:39.798Z,11.95
2017-08-28T22:53:09.064Z,12.90
2017-08-28T22:55:38.308Z,12.27
2017-08-28T22:58:07.569Z,11.15
2017-08-28T23:00:36.825Z,12.48
2017-08-28T23:03:06.106Z,12.50
2017-08-28T23:05:35.348Z,12.25
2017-08-28T23:08:04.605Z,11.70
2017-08-28T23:10:33.857Z,11.82
2017-08-28T23:13:03.112Z,12.82
2017-08-28T23:15:32.364Z,12.52
2017-08-28T23:18:01.624Z,12.25
2017-08-28T23:20:30.877Z,12.55
2017-08-28T23:23:00.137Z,12.65
2017-08-28T23:25:29.380Z,12.75
2017-08-28T23:27:58.650Z,11.90
2017-08-28T23:30:27.905Z,13.52
2017-08-28T23:32:57.172Z,12.43
2017-08-28T23:35:26.433Z,12.40
2017-08-28T23:37:55.694Z,14.15
2017-08-28T23:40:24.952Z,12.37
2017-08-28T23:42:54.213Z,11.88
2017-08-28T23:45:23.463Z,12.93
2017-08-28T23:47:52.753Z,13.20
2017-08-28T23:50:22.010Z,12.75
2017-08-28T23:52:51.275Z,13.05
2017-08-28T23:55:20.536Z,13.60
2017-08-28T23:57:49.787Z,12.80
